createdAt,value
2023-04-21T00:03:04.121Z,98.15
2023-04-21T00:05:32.307Z,97.94
2023-04-21T00:08:41.046Z,98.28
2023-04-21T00:11:12.432Z,98.69
2023-04-21T00:17:20.572Z,98.36
2023-04-21T00:20:20.894Z,98.32
2023-04-21T00:22:51.950Z,97.42
2023-04-21T00:25:20.157Z,97.02
2023-04-21T00:27:47.742Z,97.20
2023-04-21T00:30:28.569Z,97.36
2023-04-21T00:36:37.183Z,97.37
2023-04-21T00:43:30.846Z,97.17
2023-04-21T00:46:28.109Z,97.27
2023-04-21T00:49:19.572Z,97.22
2023-04-21T00:55:29.754Z,97.87
2023-04-21T00:58:04.601Z,97.38
2023-04-21T01:00:59.131Z,97.01
2023-04-21T01:04:17.792Z,97.28
2023-04-21T01:07:29.103Z,97.70
2023-04-21T01:10:02.957Z,98.05
2023-04-21T01:12:34.262Z,97.87
2023-04-21T01:19:31.875Z,97.73
2023-04-21T01:22:11.761Z,96.90
2023-04-21T01:28:27.003Z,97.21
2023-04-21T01:31:31.860Z,97.33
2023-04-21T01:38:29.367Z,97.85
2023-04-21T01:44:37.645Z,97.54
2023-04-21T01:47:49.274Z,97.55
2023-04-21T01:50:34.852Z,97.76
2023-04-21T01:53:05.247Z,97.67
2023-04-21T01:55:36.253Z,97.95
2023-04-21T02:01:52.260Z,98.91
2023-04-21T02:08:07.422Z,99.05
2023-04-21T02:11:04.632Z,98.73
2023-04-21T02:14:14.659Z,98.25
2023-04-21T02:24:16.378Z,97.70
2023-04-21T02:26:44.836Z,97.32
2023-04-21T02:29:12.466Z,97.13
2023-04-21T02:35:28.216Z,97.63
2023-04-21T02:37:58.478Z,98.04
2023-04-21T02:44:07.932Z,96.63
2023-04-21T02:46:47.295Z,96.44
2023-04-21T02:49:51.039Z,96.18
2023-04-21T02:52:40.536Z,96.17
2023-04-21T02:56:04.749Z,95.74
2023-04-21T02:58:39.707Z,95.58
2023-04-21T03:09:06.213Z,96.43
2023-04-21T03:12:31.222Z,96.58
2023-04-21T03:18:45.957Z,97.66
2023-04-21T03:21:13.689Z,97.06
2023-04-21T03:23:41.301Z,96.60
2023-04-21T03:27:02.307Z,96.20
2023-04-21T03:33:25.412Z,95.94
2023-04-21T03:39:40.516Z,95.69
2023-04-21T03:42:24.497Z,95.13
2023-04-21T03:44:52.363Z,95.31
2023-04-21T03:51:03.119Z,94.85
2023-04-21T03:54:24.889Z,95.06
2023-04-21T03:56:54.771Z,95.35
2023-04-21T03:59:46.930Z,95.39
2023-04-21T04:13:35.694Z,95.92
2023-04-21T04:16:03.483Z,95.98
2023-04-21T04:18:39.857Z,95.88
2023-04-21T04:21:14.639Z,96.23
2023-04-21T04:24:19.923Z,96.29
2023-04-21T04:27:49.831Z,95.94
2023-04-21T04:34:17.152Z,96.08
2023-04-21T04:36:48.765Z,96.42
2023-04-21T04:39:30.749Z,95.88
2023-04-21T04:42:37.835Z,96.58
2023-04-21T04:48:54.418Z,96.74
2023-04-21T04:55:08.760Z,96.85
2023-04-21T04:57:57.599Z,97.70
2023-04-21T05:04:46.543Z,97.20
2023-04-21T05:07:45.661Z,96.88
2023-04-21T05:10:26.003Z,96.48
2023-04-21T05:16:15.146Z,97.15
2023-04-21T05:18:46.777Z,96.52
2023-04-21T05:24:25.927Z,96.80
2023-04-21T05:27:38.887Z,96.36
2023-04-21T05:30:36.987Z,96.16
2023-04-21T05:33:13.228Z,96.37
2023-04-21T05:35:56.863Z,96.71
2023-04-21T05:39:06.929Z,96.80
2023-04-21T05:41:43.463Z,97.34
2023-04-21T05:44:53.268Z,96.90
2023-04-21T05:47:47.666Z,96.57
2023-04-21T05:50:37.171Z,96.41
2023-04-21T05:59:36.726Z,95.92
2023-04-21T06:02:10.679Z,96.18
2023-04-21T06:05:12.958Z,96.32
2023-04-21T06:08:15.569Z,96.30
2023-04-21T06:14:49.835Z,96.16
2023-04-21T06:17:32.769Z,96.92
2023-04-21T06:24:07.653Z,96.66
2023-04-21T06:27:25.845Z,96.66
2023-04-21T06:30:22.209Z,96.50
2023-04-21T06:33:21.957Z,96.63
2023-04-21T06:36:10.071Z,96.86
2023-04-21T06:39:38.364Z,97.29
2023-04-21T06:42:25.080Z,97.27
2023-04-21T06:45:07.735Z,97.75
2023-04-21T06:50:23.169Z,97.61
2023-04-21T06:53:27.710Z,97.94
2023-04-21T06:56:20.045Z,98.09
2023-04-21T06:59:07.363Z,98.47
2023-04-21T07:01:44.011Z,98.65
2023-04-21T07:04:34.187Z,98.69
2023-04-21T07:07:23.729Z,98.93
2023-04-21T07:10:19.864Z,98.95
2023-04-21T07:12:47.461Z,99.34
2023-04-21T07:15:20.506Z,99.40
2023-04-21T07:18:12.431Z,99.79
2023-04-21T07:20:55.702Z,100.00
2023-04-21T07:23:41.933Z,100.00
2023-04-21T07:26:28.001Z,100.00
2023-04-21T07:29:40.881Z,100.00
2023-04-21T07:32:19.669Z,100.00
2023-04-21T07:34:50.446Z,100.00
2023-04-21T07:37:55.641Z,100.00
2023-04-21T07:40:31.072Z,100.00
2023-04-21T07:43:10.958Z,100.00
2023-04-21T07:45:56.882Z,100.00
2023-04-21T07:48:35.695Z,100.00
2023-04-21T07:51:47.263Z,100.00
2023-04-21T07:54:38.326Z,100.00
2023-04-21T07:57:44.083Z,100.00
2023-04-21T08:00:35.041Z,100.00
2023-04-21T08:03:15.172Z,100.00
2023-04-21T08:09:35.314Z,100.00
2023-04-21T08:12:39.610Z,99.63
2023-04-21T08:15:13.474Z,99.53
2023-04-21T08:17:53.522Z,99.00
2023-04-21T08:20:35.474Z,98.50
2023-04-21T08:23:23.726Z,98.06
2023-04-21T08:25:58.497Z,97.91
2023-04-21T08:29:00.694Z,97.76
2023-04-21T08:31:30.639Z,97.40
2023-04-21T08:34:02.426Z,97.71
2023-04-21T08:36:32.408Z,97.98
2023-04-21T08:39:00.768Z,98.60
2023-04-21T08:41:29.611Z,98.43
2023-04-21T08:43:57.902Z,97.38
2023-04-21T08:46:26.553Z,96.82
2023-04-21T08:48:55.616Z,96.95
2023-04-21T08:51:24.985Z,96.99
2023-04-21T08:53:55.751Z,97.49
2023-04-21T08:56:26.052Z,97.00
2023-04-21T08:58:56.190Z,96.98
2023-04-21T09:01:23.748Z,96.23
2023-04-21T09:03:54.225Z,95.98
2023-04-21T09:06:24.295Z,95.50
2023-04-21T09:08:57.190Z,95.23
2023-04-21T09:11:33.845Z,94.48
2023-04-21T09:14:03.651Z,94.43
2023-04-21T09:16:33.898Z,93.45
2023-04-21T09:19:01.801Z,93.23
2023-04-21T09:21:31.954Z,93.67
2023-04-21T09:24:01.629Z,94.07
2023-04-21T09:26:29.510Z,93.93
2023-04-21T09:28:58.084Z,94.34
2023-04-21T09:31:26.100Z,94.71
2023-04-21T09:36:43.470Z,94.06
2023-04-21T09:40:04.157Z,93.60
2023-04-21T09:42:36.324Z,92.50
2023-04-21T09:48:06.855Z,91.90
2023-04-21T09:51:07.529Z,90.77
2023-04-21T09:53:28.396Z,90.73
2023-04-21T09:55:57.249Z,90.03
2023-04-21T09:58:36.651Z,90.07
2023-04-21T10:01:05.266Z,90.30
2023-04-21T10:03:34.192Z,90.38
2023-04-21T10:06:16.706Z,91.03
2023-04-21T10:09:25.051Z,91.32
2023-04-21T10:12:24.932Z,91.59
2023-04-21T10:15:05.637Z,91.65
2023-04-21T10:17:41.508Z,91.86
2023-04-21T10:20:11.813Z,91.54
2023-04-21T10:22:40.571Z,90.89
2023-04-21T10:25:11.080Z,90.89
2023-04-21T10:27:41.269Z,90.29
2023-04-21T10:30:29.290Z,89.77
2023-04-21T10:33:06.189Z,88.66
2023-04-21T10:40:10.649Z,87.14
2023-04-21T10:43:06.830Z,85.86
2023-04-21T10:54:23.553Z,81.47
2023-04-21T10:56:54.997Z,80.49
2023-04-21T11:03:10.540Z,80.31
2023-04-21T11:05:45.128Z,80.39
2023-04-21T11:12:40.451Z,79.50
2023-04-21T11:15:18.794Z,78.75
2023-04-21T11:18:01.635Z,78.05
2023-04-21T11:26:46.788Z,78.64
2023-04-21T11:47:18.860Z,81.19
2023-04-21T12:09:48.712Z,76.81
2023-04-21T12:17:02.802Z,76.03
2023-04-21T12:22:32.139Z,76.58
2023-04-21T12:24:59.815Z,76.95
2023-04-21T12:28:07.652Z,77.05
2023-04-21T12:30:44.608Z,77.38
2023-04-21T12:33:44.988Z,77.02
2023-04-21T12:36:35.963Z,76.83
2023-04-21T12:39:07.020Z,76.31
2023-04-21T12:41:57.382Z,75.60
2023-04-21T12:44:36.184Z,74.53
2023-04-21T12:47:18.872Z,73.61
2023-04-21T12:49:47.565Z,73.57
2023-04-21T12:52:15.344Z,73.06
2023-04-21T12:54:43.458Z,72.69
2023-04-21T12:57:11.138Z,72.83
2023-04-21T12:59:38.607Z,72.60
2023-04-21T13:02:06.266Z,72.27
2023-04-21T13:04:34.281Z,72.23
2023-04-21T13:07:01.820Z,71.92
2023-04-21T13:09:29.627Z,71.89
2023-04-21T13:11:57.498Z,71.48
2023-04-21T13:14:25.137Z,71.48
2023-04-21T13:16:53.442Z,71.96
2023-04-21T13:19:23.337Z,71.79
2023-04-21T13:21:53.431Z,71.60
2023-04-21T13:25:08.405Z,71.57
2023-04-21T13:27:39.219Z,71.62
2023-04-21T13:30:12.234Z,70.53
2023-04-21T13:32:40.092Z,70.55
2023-04-21T13:35:11.493Z,69.44
2023-04-21T13:37:40.777Z,70.26
2023-04-21T13:55:35.941Z,71.04
2023-04-21T13:58:03.763Z,71.38
2023-04-21T14:00:40.914Z,71.25
2023-04-21T23:09:52.072Z,100.00
